Impacts TAF Board
For situational awareness. Not to be used for flight planning purposes.
IDs:

KGJT - Grand Junction Rgnl, CO, US

Issued at 1121 UTC 07 Jul 2020
Updated at 1343 UTC 07 Jul 2020
Potential Impact None Slight Moderate High
Time<<08/02Z 08/03Z 08/04Z 08/05Z 08/06Z 08/07Z 08/08Z 08/09Z 08/10Z 08/11Z 08/12Z 08/13Z 08/14Z>>
Type PRVL PRVL PRVL PRVL PRVL PRVL PRVL PRVL PRVL PRVL
VIS >6 >6 >6 >6 >6 >6 >6 >6 >6 >6
CIG -- -- -- -- -- -- -- -- -- --
Cover SKC SKC SKC SKC SKC SKC SKC SKC SKC SKC
FltCat VFR VFR VFR VFR VFR VFR VFR VFR VFR VFR
WX -- -- -- -- -- -- -- -- -- --
WDir 180 180 180 110 110 110 110 110 110 110
WSpd 8 8 8 6 6 6 6 6 6 6
WGst -- -- -- -- -- -- -- -- -- --
Raw TAF
KGJT 071121Z 0712/0812 11007KT P6SM SCT200
  FM071500 14015KT P6SM FEW200
  FM071800 20014KT P6SM SKC
  FM072000 21015G25KT P6SM SKC
  FM080200 18008KT P6SM SKC
  FM080500 11006KT P6SM SKC


METAR Board
Radar Display
Forecast Discussion
For situational awareness. Not to be used for flight planning purposes.